Terminal Aerodrome Forecast
Issued by NWS

Home | Current Version | Previous Version | Text Only | Print | Product List | Glossary On
Versions: 1 2 3 4 5 6 7 8 9 10 11 12 13 14 15 16 17 18 19 20 21 22 23 24 25 26 27 28
589
FTUS45 KTFX 161135
TAFHLN
TAF
KHLN 161135Z 1612/1712 26010KT P6SM SCT050
      TEMPO 1612/1614 26012G22KT
     FM161600 VRB06KT P6SM FEW080 SCT120 WS020/29040KT
     FM162100 VRB05KT P6SM FEW150 SCT250
     FM170600 VRB05KT P6SM SCT070 BKN120=

USA.gov is the U.S. government's official web portal to all federal, state and local government web resources and services.